Wolke Sonne

Wetter Roßtal

Gehe zu: Ammerndorf | Roßtal 2

Tageswerte vom Donnerstag, 18.04.2019

Optionen

Tag:
Erweitert:

Alle Werte vom Donnerstag, 18.04.2019

Einen Moment bitte, die Daten werden aufbereitet...

UhrzeitTemperaturFeuchteLuftdruckNiederschlagEvapotranspirationNiederschlag?WindWindböenRegenrateWindrichtungHelligkeitSolarstrahlungUV-IndexSonne?Feinstaub 10µmUhrzeit
Diagramm IconDiagramm IconDiagramm IconDiagramm IconDiagramm IconDiagramm IconDiagramm IconDiagramm IconDiagramm IconDiagramm IconDiagramm IconDiagramm IconDiagramm IconDiagramm IconDiagramm Icon
00:0011,1 °C 54 % 1026,0 hPa 0,0 mm 0,1 mm nein 4,8 km/h 8,0 km/h 0,0 mm/h OSO 0,000 klux 0,0 W/qm 0,0 nein 6,13 µg/m³ 00:00
00:0511,1 °C 55 % 1025,9 hPa 0,0 mm 0,0 mm nein 4,8 km/h 8,0 km/h 0,0 mm/h SO 0,000 klux 0,0 W/qm 0,0 nein 5,77 µg/m³ 00:05
00:1011,1 °C 56 % 1026,0 hPa 0,0 mm 0,0 mm nein 6,4 km/h 12,9 km/h 0,0 mm/h OSO 0,000 klux 0,0 W/qm 0,0 nein 6,70 µg/m³ 00:10
00:1511,1 °C 56 % 1026,0 hPa 0,0 mm 0,0 mm nein 4,8 km/h 9,7 km/h 0,0 mm/h OSO 0,000 klux 0,0 W/qm 0,0 nein 6,53 µg/m³ 00:15
00:2010,6 °C 57 % 1026,0 hPa 0,0 mm 0,0 mm nein 6,4 km/h 12,9 km/h 0,0 mm/h SO 0,000 klux 0,0 W/qm 0,0 nein 5,90 µg/m³ 00:20
00:2510,6 °C 58 % 1026,0 hPa 0,0 mm 0,0 mm nein 6,4 km/h 11,3 km/h 0,0 mm/h SO 0,000 klux 0,0 W/qm 0,0 nein 6,13 µg/m³ 00:25
00:3010,6 °C 58 % 1025,9 hPa 0,0 mm 0,0 mm nein 6,4 km/h 11,3 km/h 0,0 mm/h SO 0,000 klux 0,0 W/qm 0,0 nein 6,67 µg/m³ 00:30
00:3510,6 °C 59 % 1025,9 hPa 0,0 mm 0,0 mm nein 6,4 km/h 12,9 km/h 0,0 mm/h SO 0,000 klux 0,0 W/qm 0,0 nein 6,57 µg/m³ 00:35
00:4010,0 °C 59 % 1026,0 hPa 0,0 mm 0,0 mm nein 4,8 km/h 9,7 km/h 0,0 mm/h SO 0,000 klux 0,0 W/qm 0,0 nein 6,50 µg/m³ 00:40
00:4510,0 °C 60 % 1026,1 hPa 0,0 mm 0,0 mm nein 4,8 km/h 12,9 km/h 0,0 mm/h SO 0,000 klux 0,0 W/qm 0,0 nein 6,53 µg/m³ 00:45
00:5010,0 °C 60 % 1026,1 hPa 0,0 mm 0,0 mm nein 4,8 km/h 9,7 km/h 0,0 mm/h SO 0,000 klux 0,0 W/qm 0,0 nein 7,50 µg/m³ 00:50
00:5510,0 °C 60 % 1026,1 hPa 0,0 mm 0,0 mm nein 4,8 km/h 9,7 km/h 0,0 mm/h SO 0,000 klux 0,0 W/qm 0,0 nein 8,00 µg/m³ 00:55
01:0010,0 °C 61 % 1026,1 hPa 0,0 mm 0,1 mm nein 4,8 km/h 6,4 km/h 0,0 mm/h SO 0,000 klux 0,0 W/qm 0,0 nein 6,63 µg/m³ 01:00
01:0510,0 °C 61 % 1026,1 hPa 0,0 mm 0,0 mm nein 4,8 km/h 6,4 km/h 0,0 mm/h SO 0,000 klux 0,0 W/qm 0,0 nein 6,70 µg/m³ 01:05
01:1010,0 °C 62 % 1026,0 hPa 0,0 mm 0,0 mm nein 4,8 km/h 6,4 km/h 0,0 mm/h SO 0,000 klux 0,0 W/qm 0,0 nein 6,70 µg/m³ 01:10
01:159,4 °C 62 % 1026,1 hPa 0,0 mm 0,0 mm nein 3,2 km/h 6,4 km/h 0,0 mm/h SO 0,000 klux 0,0 W/qm 0,0 nein 6,60 µg/m³ 01:15
01:209,4 °C 62 % 1026,1 hPa 0,0 mm 0,0 mm nein 4,8 km/h 9,7 km/h 0,0 mm/h SO 0,000 klux 0,0 W/qm 0,0 nein 6,50 µg/m³ 01:20
01:259,4 °C 62 % 1026,1 hPa 0,0 mm 0,0 mm nein 4,8 km/h 6,4 km/h 0,0 mm/h SO 0,000 klux 0,0 W/qm 0,0 nein 6,73 µg/m³ 01:25
01:309,4 °C 62 % 1026,1 hPa 0,0 mm 0,0 mm nein 3,2 km/h 4,8 km/h 0,0 mm/h SO 0,000 klux 0,0 W/qm 0,0 nein 6,83 µg/m³ 01:30
01:359,4 °C 62 % 1026,2 hPa 0,0 mm 0,0 mm nein 3,2 km/h 4,8 km/h 0,0 mm/h SO 0,000 klux 0,0 W/qm 0,0 nein 6,40 µg/m³ 01:35
01:409,4 °C 62 % 1026,2 hPa 0,0 mm 0,0 mm nein 0,0 km/h 0,0 km/h 0,0 mm/h N 0,000 klux 0,0 W/qm 0,0 nein 7,30 µg/m³ 01:40
01:458,9 °C 63 % 1026,3 hPa 0,0 mm 0,0 mm nein 0,0 km/h 0,0 km/h 0,0 mm/h N 0,000 klux 0,0 W/qm 0,0 nein 6,80 µg/m³ 01:45
01:508,9 °C 63 % 1026,3 hPa 0,0 mm 0,0 mm nein 0,0 km/h 0,0 km/h 0,0 mm/h N 0,000 klux 0,0 W/qm 0,0 nein 6,77 µg/m³ 01:50
01:558,9 °C 64 % 1026,2 hPa 0,0 mm 0,0 mm nein 0,0 km/h 0,0 km/h 0,0 mm/h N 0,000 klux 0,0 W/qm 0,0 nein 6,70 µg/m³ 01:55
UhrzeitTemperaturFeuchteLuftdruckNiederschlagEvapotranspirationNiederschlag?WindWindböenRegenrateWindrichtungHelligkeitSolarstrahlungUV-IndexSonne?Feinstaub 10µmUhrzeit
02:008,3 °C 63 % 1026,3 hPa 0,0 mm 0,0 mm nein 0,0 km/h 0,0 km/h 0,0 mm/h N 0,000 klux 0,0 W/qm 0,0 nein 6,43 µg/m³ 02:00
02:058,3 °C 64 % 1026,3 hPa 0,0 mm 0,0 mm nein 0,0 km/h 0,0 km/h 0,0 mm/h N 0,000 klux 0,0 W/qm 0,0 nein 6,63 µg/m³ 02:05
02:108,3 °C 65 % 1026,2 hPa 0,0 mm 0,0 mm nein 0,0 km/h 0,0 km/h 0,0 mm/h N 0,000 klux 0,0 W/qm 0,0 nein 6,60 µg/m³ 02:10
02:157,8 °C 66 % 1026,3 hPa 0,0 mm 0,0 mm nein 0,0 km/h 0,0 km/h 0,0 mm/h N 0,000 klux 0,0 W/qm 0,0 nein 7,40 µg/m³ 02:15
02:207,8 °C 67 % 1026,3 hPa 0,0 mm 0,0 mm nein 0,0 km/h 0,0 km/h 0,0 mm/h N 0,000 klux 0,0 W/qm 0,0 nein 6,93 µg/m³ 02:20
02:257,8 °C 68 % 1026,3 hPa 0,0 mm 0,0 mm nein 0,0 km/h 0,0 km/h 0,0 mm/h N 0,000 klux 0,0 W/qm 0,0 nein 8,10 µg/m³ 02:25
02:307,8 °C 69 % 1026,2 hPa 0,0 mm 0,0 mm nein 0,0 km/h 0,0 km/h 0,0 mm/h N 0,000 klux 0,0 W/qm 0,0 nein 7,07 µg/m³ 02:30
02:357,2 °C 70 % 1026,2 hPa 0,0 mm 0,0 mm nein 3,2 km/h 9,7 km/h 0,0 mm/h SO 0,000 klux 0,0 W/qm 0,0 nein 9,47 µg/m³ 02:35
02:407,2 °C 71 % 1026,1 hPa 0,0 mm 0,0 mm nein 4,8 km/h 6,4 km/h 0,0 mm/h SO 0,000 klux 0,0 W/qm 0,0 nein 6,60 µg/m³ 02:40
02:457,2 °C 71 % 1026,1 hPa 0,0 mm 0,0 mm nein 3,2 km/h 6,4 km/h 0,0 mm/h SO 0,000 klux 0,0 W/qm 0,0 nein 6,67 µg/m³ 02:45
02:507,2 °C 71 % 1026,2 hPa 0,0 mm 0,0 mm nein 3,2 km/h 6,4 km/h 0,0 mm/h SO 0,000 klux 0,0 W/qm 0,0 nein 7,17 µg/m³ 02:50
02:557,2 °C 70 % 1026,2 hPa 0,0 mm 0,0 mm nein 1,6 km/h 4,8 km/h 0,0 mm/h SO 0,000 klux 0,0 W/qm 0,0 nein 7,50 µg/m³ 02:55
03:007,2 °C 70 % 1026,2 hPa 0,0 mm 0,0 mm nein 0,0 km/h 0,0 km/h 0,0 mm/h N 0,000 klux 0,0 W/qm 0,0 nein 7,87 µg/m³ 03:00
03:057,2 °C 71 % 1026,3 hPa 0,0 mm 0,0 mm nein 1,6 km/h 4,8 km/h 0,0 mm/h SO 0,000 klux 0,0 W/qm 0,0 nein 8,00 µg/m³ 03:05
03:107,2 °C 70 % 1026,3 hPa 0,0 mm 0,0 mm nein 3,2 km/h 4,8 km/h 0,0 mm/h SO 0,000 klux 0,0 W/qm 0,0 nein 7,40 µg/m³ 03:10
03:157,2 °C 70 % 1026,3 hPa 0,0 mm 0,0 mm nein 3,2 km/h 6,4 km/h 0,0 mm/h SO 0,000 klux 0,0 W/qm 0,0 nein 8,10 µg/m³ 03:15
03:207,2 °C 71 % 1026,2 hPa 0,0 mm 0,0 mm nein 3,2 km/h 6,4 km/h 0,0 mm/h SO 0,000 klux 0,0 W/qm 0,0 nein 7,37 µg/m³ 03:20
03:257,2 °C 72 % 1026,2 hPa 0,0 mm 0,0 mm nein 4,8 km/h 9,7 km/h 0,0 mm/h SO 0,000 klux 0,0 W/qm 0,0 nein 11,17 µg/m³ 03:25
03:306,7 °C 73 % 1026,2 hPa 0,0 mm 0,0 mm nein 4,8 km/h 9,7 km/h 0,0 mm/h OSO 0,000 klux 0,0 W/qm 0,0 nein 8,30 µg/m³ 03:30
03:356,7 °C 74 % 1026,2 hPa 0,0 mm 0,0 mm nein 4,8 km/h 9,7 km/h 0,0 mm/h OSO 0,000 klux 0,0 W/qm 0,0 nein 8,60 µg/m³ 03:35
03:407,2 °C 74 % 1026,1 hPa 0,0 mm 0,0 mm nein 4,8 km/h 9,7 km/h 0,0 mm/h SO 0,000 klux 0,0 W/qm 0,0 nein 8,57 µg/m³ 03:40
03:457,2 °C 74 % 1026,1 hPa 0,0 mm 0,0 mm nein 4,8 km/h 9,7 km/h 0,0 mm/h SO 0,000 klux 0,0 W/qm 0,0 nein 7,40 µg/m³ 03:45
03:507,2 °C 74 % 1026,2 hPa 0,0 mm 0,0 mm nein 4,8 km/h 6,4 km/h 0,0 mm/h SO 0,000 klux 0,0 W/qm 0,0 nein 9,03 µg/m³ 03:50
03:557,2 °C 74 % 1026,1 hPa 0,0 mm 0,0 mm nein 3,2 km/h 4,8 km/h 0,0 mm/h SO 0,000 klux 0,0 W/qm 0,0 nein 8,40 µg/m³ 03:55
UhrzeitTemperaturFeuchteLuftdruckNiederschlagEvapotranspirationNiederschlag?WindWindböenRegenrateWindrichtungHelligkeitSolarstrahlungUV-IndexSonne?Feinstaub 10µmUhrzeit
04:007,2 °C 73 % 1026,1 hPa 0,0 mm 0,0 mm nein 3,2 km/h 6,4 km/h 0,0 mm/h SO 0,000 klux 0,0 W/qm 0,0 nein 9,10 µg/m³ 04:00
04:057,2 °C 73 % 1026,2 hPa 0,0 mm 0,0 mm nein 3,2 km/h 6,4 km/h 0,0 mm/h SO 0,000 klux 0,0 W/qm 0,0 nein 7,93 µg/m³ 04:05
04:107,2 °C 73 % 1026,2 hPa 0,0 mm 0,0 mm nein 1,6 km/h 4,8 km/h 0,0 mm/h SO 0,000 klux 0,0 W/qm 0,0 nein 8,63 µg/m³ 04:10
04:157,2 °C 73 % 1026,3 hPa 0,0 mm 0,0 mm nein 3,2 km/h 4,8 km/h 0,0 mm/h SO 0,000 klux 0,0 W/qm 0,0 nein 8,30 µg/m³ 04:15
04:207,2 °C 73 % 1026,3 hPa 0,0 mm 0,0 mm nein 0,0 km/h 0,0 km/h 0,0 mm/h N 0,000 klux 0,0 W/qm 0,0 nein 10,60 µg/m³ 04:20
04:257,2 °C 73 % 1026,3 hPa 0,0 mm 0,0 mm nein 0,0 km/h 0,0 km/h 0,0 mm/h N 0,000 klux 0,0 W/qm 0,0 nein 8,53 µg/m³ 04:25
04:306,7 °C 73 % 1026,3 hPa 0,0 mm 0,0 mm nein 0,0 km/h 0,0 km/h 0,0 mm/h N 0,000 klux 0,0 W/qm 0,0 nein 8,50 µg/m³ 04:30
04:356,7 °C 74 % 1026,3 hPa 0,0 mm 0,0 mm nein 0,0 km/h 0,0 km/h 0,0 mm/h N 0,000 klux 0,0 W/qm 0,0 nein 7,90 µg/m³ 04:35
04:406,7 °C 74 % 1026,3 hPa 0,0 mm 0,0 mm nein 0,0 km/h 0,0 km/h 0,0 mm/h N 0,000 klux 0,0 W/qm 0,0 nein 8,87 µg/m³ 04:40
04:456,7 °C 74 % 1026,3 hPa 0,0 mm 0,0 mm nein 0,0 km/h 0,0 km/h 0,0 mm/h N 0,000 klux 0,0 W/qm 0,0 nein 9,13 µg/m³ 04:45
04:506,7 °C 74 % 1026,3 hPa 0,0 mm 0,0 mm nein 0,0 km/h 0,0 km/h 0,0 mm/h N 0,000 klux 0,0 W/qm 0,0 nein 8,67 µg/m³ 04:50
04:556,1 °C 75 % 1026,4 hPa 0,0 mm 0,0 mm nein 0,0 km/h 0,0 km/h 0,0 mm/h N 0,000 klux 0,0 W/qm 0,0 nein 8,87 µg/m³ 04:55
05:006,1 °C 75 % 1026,4 hPa 0,0 mm 0,0 mm nein 0,0 km/h 0,0 km/h 0,0 mm/h N 0,000 klux 0,0 W/qm 0,0 nein 9,17 µg/m³ 05:00
05:056,1 °C 75 % 1026,4 hPa 0,0 mm 0,0 mm nein 0,0 km/h 0,0 km/h 0,0 mm/h N 0,000 klux 0,0 W/qm 0,0 nein 10,03 µg/m³ 05:05
05:106,1 °C 76 % 1026,4 hPa 0,0 mm 0,0 mm nein 0,0 km/h 0,0 km/h 0,0 mm/h N 0,000 klux 0,0 W/qm 0,0 nein 9,90 µg/m³ 05:10
05:156,1 °C 76 % 1026,4 hPa 0,0 mm 0,0 mm nein 0,0 km/h 0,0 km/h 0,0 mm/h N 0,000 klux 0,0 W/qm 0,0 nein 9,50 µg/m³ 05:15
05:205,6 °C 76 % 1026,5 hPa 0,0 mm 0,0 mm nein 0,0 km/h 0,0 km/h 0,0 mm/h N 0,000 klux 0,0 W/qm 0,0 nein 9,37 µg/m³ 05:20
05:255,6 °C 76 % 1026,4 hPa 0,0 mm 0,0 mm nein 0,0 km/h 0,0 km/h 0,0 mm/h N 0,000 klux 0,0 W/qm 0,0 nein 9,60 µg/m³ 05:25
05:305,6 °C 77 % 1026,4 hPa 0,0 mm 0,0 mm nein 0,0 km/h 0,0 km/h 0,0 mm/h N 0,000 klux 0,0 W/qm 0,0 nein 9,63 µg/m³ 05:30
05:355,6 °C 77 % 1026,4 hPa 0,0 mm 0,0 mm nein 0,0 km/h 0,0 km/h 0,0 mm/h N 0,000 klux 0,0 W/qm 0,0 nein 9,17 µg/m³ 05:35
05:405,6 °C 78 % 1026,4 hPa 0,0 mm 0,0 mm nein 0,0 km/h 0,0 km/h 0,0 mm/h N 0,000 klux 0,0 W/qm 0,0 nein 9,30 µg/m³ 05:40
05:455,6 °C 78 % 1026,4 hPa 0,0 mm 0,0 mm nein 0,0 km/h 0,0 km/h 0,0 mm/h N 0,000 klux 0,0 W/qm 0,0 nein 10,17 µg/m³ 05:45
05:505,6 °C 78 % 1026,4 hPa 0,0 mm 0,0 mm nein 0,0 km/h 0,0 km/h 0,0 mm/h N 0,000 klux 0,0 W/qm 0,0 nein 10,87 µg/m³ 05:50
05:555,6 °C 78 % 1026,3 hPa 0,0 mm 0,0 mm nein 0,0 km/h 0,0 km/h 0,0 mm/h N 0,000 klux 0,0 W/qm 0,0 nein 10,83 µg/m³ 05:55
UhrzeitTemperaturFeuchteLuftdruckNiederschlagEvapotranspirationNiederschlag?WindWindböenRegenrateWindrichtungHelligkeitSolarstrahlungUV-IndexSonne?Feinstaub 10µmUhrzeit
06:005,0 °C 78 % 1026,5 hPa 0,0 mm 0,0 mm nein 0,0 km/h 0,0 km/h 0,0 mm/h N 0,000 klux 0,0 W/qm 0,0 nein 12,23 µg/m³ 06:00
06:055,0 °C 79 % 1026,4 hPa 0,0 mm 0,0 mm nein 0,0 km/h 0,0 km/h 0,0 mm/h N 0,000 klux 0,0 W/qm 0,0 nein 9,93 µg/m³ 06:05
06:105,0 °C 79 % 1026,5 hPa 0,0 mm 0,0 mm nein 0,0 km/h 0,0 km/h 0,0 mm/h N 0,000 klux 0,0 W/qm 0,0 nein 9,70 µg/m³ 06:10
06:155,0 °C 79 % 1026,5 hPa 0,0 mm 0,0 mm nein 0,0 km/h 0,0 km/h 0,0 mm/h N 0,000 klux 0,0 W/qm 0,0 nein 10,90 µg/m³ 06:15
06:205,0 °C 79 % 1026,6 hPa 0,0 mm 0,0 mm nein 0,0 km/h 0,0 km/h 0,0 mm/h N 0,168 klux 1,0 W/qm 0,0 nein 9,60 µg/m³ 06:20
06:255,0 °C 79 % 1026,6 hPa 0,0 mm 0,0 mm nein 0,0 km/h 0,0 km/h 0,0 mm/h N 0,836 klux 5,0 W/qm 0,0 nein 12,13 µg/m³ 06:25
06:305,0 °C 79 % 1026,6 hPa 0,0 mm 0,0 mm nein 0,0 km/h 0,0 km/h 0,0 mm/h N 1,333 klux 8,0 W/qm 0,0 nein 10,30 µg/m³ 06:30
06:355,0 °C 80 % 1026,6 hPa 0,0 mm 0,0 mm nein 0,0 km/h 0,0 km/h 0,0 mm/h N 1,825 klux 11,0 W/qm 0,0 nein 10,50 µg/m³ 06:35
06:405,0 °C 80 % 1026,7 hPa 0,0 mm 0,0 mm nein 0,0 km/h 0,0 km/h 0,0 mm/h N 2,148 klux 13,0 W/qm 0,0 nein 11,47 µg/m³ 06:40
06:455,0 °C 81 % 1026,6 hPa 0,0 mm 0,0 mm nein 0,0 km/h 0,0 km/h 0,0 mm/h N 2,796 klux 17,0 W/qm 0,0 nein 10,40 µg/m³ 06:45
06:504,4 °C 81 % 1026,8 hPa 0,0 mm 0,0 mm nein 0,0 km/h 0,0 km/h 0,0 mm/h N 3,440 klux 21,0 W/qm 0,0 nein 10,93 µg/m³ 06:50
06:554,4 °C 82 % 1026,9 hPa 0,0 mm 0,0 mm nein 0,0 km/h 0,0 km/h 0,0 mm/h N 4,404 klux 27,0 W/qm 0,0 nein 11,20 µg/m³ 06:55
07:004,4 °C 82 % 1026,9 hPa 0,0 mm 0,0 mm nein 0,0 km/h 0,0 km/h 0,0 mm/h N 5,684 klux 35,0 W/qm 0,0 nein 12,10 µg/m³ 07:00
07:055,0 °C 83 % 1026,8 hPa 0,0 mm 0,0 mm nein 0,0 km/h 0,0 km/h 0,0 mm/h N 5,013 klux 31,0 W/qm 0,0 nein 11,73 µg/m³ 07:05
07:105,0 °C 83 % 1026,8 hPa 0,0 mm 0,0 mm nein 0,0 km/h 0,0 km/h 0,0 mm/h N 6,118 klux 38,0 W/qm 0,0 nein 12,23 µg/m³ 07:10
07:155,0 °C 83 % 1026,9 hPa 0,0 mm 0,0 mm nein 0,0 km/h 0,0 km/h 0,0 mm/h N 10,098 klux 63,0 W/qm 0,0 nein 11,10 µg/m³ 07:15
07:205,0 °C 83 % 1026,9 hPa 0,0 mm 0,0 mm nein 0,0 km/h 0,0 km/h 0,0 mm/h N 11,809 klux 74,0 W/qm 0,0 ja 11,60 µg/m³ 07:20
07:255,6 °C 83 % 1026,8 hPa 0,0 mm 0,0 mm nein 0,0 km/h 4,8 km/h 0,0 mm/h NO 9,215 klux 58,0 W/qm 0,0 nein 12,63 µg/m³ 07:25
07:305,6 °C 83 % 1026,8 hPa 0,0 mm 0,0 mm nein 0,0 km/h 0,0 km/h 0,0 mm/h N 12,653 klux 80,0 W/qm 0,0 nein 13,23 µg/m³ 07:30
07:356,1 °C 82 % 1026,7 hPa 0,0 mm 0,0 mm nein 0,0 km/h 0,0 km/h 0,0 mm/h N 19,366 klux 123,0 W/qm 0,0 ja 15,00 µg/m³ 07:35
07:407,8 °C 76 % 1026,4 hPa 0,0 mm 0,0 mm nein 0,0 km/h 0,0 km/h 0,0 mm/h N 23,981 klux 153,0 W/qm 0,0 ja 13,07 µg/m³ 07:40
07:458,3 °C 72 % 1026,3 hPa 0,0 mm 0,0 mm nein 3,2 km/h 12,9 km/h 0,0 mm/h O 29,489 klux 189,0 W/qm 0,0 ja 14,30 µg/m³ 07:45
07:508,9 °C 71 % 1026,2 hPa 0,0 mm 0,0 mm nein 6,4 km/h 9,7 km/h 0,0 mm/h O 31,995 klux 206,0 W/qm 0,0 ja 13,50 µg/m³ 07:50
07:558,9 °C 70 % 1026,2 hPa 0,0 mm 0,0 mm nein 6,4 km/h 11,3 km/h 0,0 mm/h O 31,384 klux 203,0 W/qm 0,0 ja 11,87 µg/m³ 07:55
UhrzeitTemperaturFeuchteLuftdruckNiederschlagEvapotranspirationNiederschlag?WindWindböenRegenrateWindrichtungHelligkeitSolarstrahlungUV-IndexSonne?Feinstaub 10µmUhrzeit
08:009,4 °C 70 % 1026,0 hPa 0,0 mm 0,1 mm nein 6,4 km/h 14,5 km/h 0,0 mm/h O 36,779 klux 239,0 W/qm 0,0 ja 12,80 µg/m³ 08:00
08:059,4 °C 69 % 1026,1 hPa 0,0 mm 0,0 mm nein 8,0 km/h 14,5 km/h 0,0 mm/h O 39,519 klux 258,0 W/qm 0,0 ja 13,10 µg/m³ 08:05
08:109,4 °C 68 % 1026,1 hPa 0,0 mm 0,0 mm nein 8,0 km/h 17,7 km/h 0,0 mm/h NO 41,927 klux 275,0 W/qm 0,0 ja 12,27 µg/m³ 08:10
08:1510,0 °C 68 % 1025,9 hPa 0,0 mm 0,0 mm nein 11,3 km/h 19,3 km/h 0,0 mm/h O 44,008 klux 290,0 W/qm 0,0 ja 13,10 µg/m³ 08:15
08:2010,0 °C 67 % 1026,0 hPa 0,0 mm 0,0 mm nein 8,0 km/h 19,3 km/h 0,0 mm/h O 45,916 klux 304,0 W/qm 0,0 ja 15,30 µg/m³ 08:20
08:2510,6 °C 66 % 1025,9 hPa 0,0 mm 0,0 mm nein 12,9 km/h 19,3 km/h 0,0 mm/h O 47,955 klux 319,0 W/qm 0,3 ja 11,77 µg/m³ 08:25
08:3010,6 °C 66 % 1025,9 hPa 0,0 mm 0,0 mm nein 11,3 km/h 20,9 km/h 0,0 mm/h O 49,824 klux 333,0 W/qm 0,5 ja 13,40 µg/m³ 08:30
08:3510,6 °C 66 % 1026,0 hPa 0,0 mm 0,0 mm nein 8,0 km/h 19,3 km/h 0,0 mm/h ONO 51,674 klux 347,0 W/qm 0,5 ja 12,00 µg/m³ 08:35
08:4011,1 °C 64 % 1025,9 hPa 0,0 mm 0,0 mm nein 9,7 km/h 17,7 km/h 0,0 mm/h O 53,207 klux 359,0 W/qm 0,6 ja 14,10 µg/m³ 08:40
08:4511,1 °C 64 % 1025,9 hPa 0,0 mm 0,0 mm nein 11,3 km/h 19,3 km/h 0,0 mm/h O 55,167 klux 374,0 W/qm 0,6 ja 11,83 µg/m³ 08:45
08:5011,1 °C 65 % 1025,9 hPa 0,0 mm 0,0 mm nein 9,7 km/h 17,7 km/h 0,0 mm/h O 56,667 klux 386,0 W/qm 0,7 ja 14,80 µg/m³ 08:50
08:5511,1 °C 62 % 1025,9 hPa 0,0 mm 0,0 mm nein 11,3 km/h 20,9 km/h 0,0 mm/h O 58,443 klux 400,0 W/qm 0,7 ja 11,87 µg/m³ 08:55
09:0011,7 °C 63 % 1025,8 hPa 0,0 mm 0,2 mm nein 11,3 km/h 22,5 km/h 0,0 mm/h ONO 60,200 klux 414,0 W/qm 0,8 ja 12,80 µg/m³ 09:00
09:0511,7 °C 63 % 1025,9 hPa 0,0 mm 0,0 mm nein 9,7 km/h 17,7 km/h 0,0 mm/h O 61,360 klux 424,0 W/qm 0,8 ja 12,10 µg/m³ 09:05
09:1011,7 °C 60 % 1025,9 hPa 0,0 mm 0,0 mm nein 9,7 km/h 17,7 km/h 0,0 mm/h O 62,940 klux 437,0 W/qm 0,9 ja 12,10 µg/m³ 09:10
09:1512,2 °C 61 % 1025,9 hPa 0,0 mm 0,0 mm nein 11,3 km/h 19,3 km/h 0,0 mm/h O 64,360 klux 449,0 W/qm 0,9 ja 11,30 µg/m³ 09:15
09:2012,2 °C 60 % 1025,8 hPa 0,0 mm 0,0 mm nein 11,3 km/h 17,7 km/h 0,0 mm/h NO 65,908 klux 462,0 W/qm 1,0 ja 11,57 µg/m³ 09:20
09:2512,2 °C 59 % 1025,9 hPa 0,0 mm 0,0 mm nein 12,9 km/h 22,5 km/h 0,0 mm/h O 67,582 klux 476,0 W/qm 1,0 ja 11,70 µg/m³ 09:25
09:3012,2 °C 60 % 1025,9 hPa 0,0 mm 0,0 mm nein 9,7 km/h 20,9 km/h 0,0 mm/h O 69,239 klux 490,0 W/qm 1,1 ja 10,60 µg/m³ 09:30
09:3512,8 °C 58 % 1025,8 hPa 0,0 mm 0,0 mm nein 9,7 km/h 17,7 km/h 0,0 mm/h O 70,739 klux 503,0 W/qm 1,2 ja 10,27 µg/m³ 09:35
09:4012,8 °C 58 % 1025,8 hPa 0,0 mm 0,0 mm nein 11,3 km/h 19,3 km/h 0,0 mm/h O 72,504 klux 518,0 W/qm 1,2 ja 11,77 µg/m³ 09:40
09:4512,8 °C 57 % 1025,8 hPa 0,0 mm 0,0 mm nein 11,3 km/h 17,7 km/h 0,0 mm/h O 74,251 klux 533,0 W/qm 1,3 ja 10,93 µg/m³ 09:45
09:5012,8 °C 57 % 1025,9 hPa 0,0 mm 0,0 mm nein 11,3 km/h 17,7 km/h 0,0 mm/h O 75,289 klux 543,0 W/qm 1,3 ja 14,03 µg/m³ 09:50
09:5512,8 °C 58 % 1025,9 hPa 0,0 mm 0,0 mm nein 9,7 km/h 24,1 km/h 0,0 mm/h NO 77,559 klux 562,0 W/qm 1,4 ja 13,57 µg/m³ 09:55
UhrzeitTemperaturFeuchteLuftdruckNiederschlagEvapotranspirationNiederschlag?WindWindböenRegenrateWindrichtungHelligkeitSolarstrahlungUV-IndexSonne?Feinstaub 10µmUhrzeit
10:0013,3 °C 56 % 1025,7 hPa 0,0 mm 0,3 mm nein 9,7 km/h 16,1 km/h 0,0 mm/h O 79,121 klux 576,0 W/qm 1,5 ja 10,50 µg/m³ 10:00
10:0513,3 °C 55 % 1025,7 hPa 0,0 mm 0,0 mm nein 14,5 km/h 24,1 km/h 0,0 mm/h O 80,395 klux 588,0 W/qm 1,5 ja 10,63 µg/m³ 10:05
10:1013,3 °C 56 % 1025,7 hPa 0,0 mm 0,0 mm nein 12,9 km/h 19,3 km/h 0,0 mm/h ONO 66,415 klux 488,0 W/qm 1,4 ja 9,57 µg/m³ 10:10
10:1513,3 °C 56 % 1025,7 hPa 0,0 mm 0,0 mm nein 9,7 km/h 17,7 km/h 0,0 mm/h ONO 43,759 klux 323,0 W/qm 1,3 nein 10,13 µg/m³ 10:15
10:2013,3 °C 57 % 1025,7 hPa 0,0 mm 0,0 mm nein 11,3 km/h 20,9 km/h 0,0 mm/h OSO 50,303 klux 373,0 W/qm 1,4 ja 10,73 µg/m³ 10:20
10:2513,3 °C 56 % 1025,7 hPa 0,0 mm 0,0 mm nein 11,3 km/h 22,5 km/h 0,0 mm/h O 56,790 klux 423,0 W/qm 1,5 ja 10,20 µg/m³ 10:25
10:3013,9 °C 55 % 1025,6 hPa 0,0 mm 0,0 mm nein 11,3 km/h 20,9 km/h 0,0 mm/h ONO 56,671 klux 424,0 W/qm 1,5 ja 11,63 µg/m³ 10:30
10:3513,9 °C 55 % 1025,6 hPa 0,0 mm 0,0 mm nein 12,9 km/h 22,5 km/h 0,0 mm/h O 69,064 klux 519,0 W/qm 1,7 ja 18,50 µg/m³ 10:35
10:4013,9 °C 54 % 1025,6 hPa 0,0 mm 0,0 mm nein 9,7 km/h 20,9 km/h 0,0 mm/h O 58,031 klux 438,0 W/qm 1,6 ja 9,93 µg/m³ 10:40
10:4513,9 °C 55 % 1025,5 hPa 0,0 mm 0,0 mm nein 11,3 km/h 19,3 km/h 0,0 mm/h ONO 45,909 klux 348,0 W/qm 1,5 nein 10,90 µg/m³ 10:45
10:5013,9 °C 55 % 1025,5 hPa 0,0 mm 0,0 mm nein 8,0 km/h 16,1 km/h 0,0 mm/h ONO 45,190 klux 344,0 W/qm 1,5 nein 10,53 µg/m³ 10:50
10:5513,9 °C 55 % 1025,5 hPa 0,0 mm 0,0 mm nein 8,0 km/h 16,1 km/h 0,0 mm/h O 42,123 klux 322,0 W/qm 1,5 nein 11,07 µg/m³ 10:55
11:0013,9 °C 55 % 1025,5 hPa 0,0 mm 0,3 mm nein 9,7 km/h 20,9 km/h 0,0 mm/h ONO 44,166 klux 339,0 W/qm 1,6 nein 8,60 µg/m³ 11:00
11:0514,4 °C 54 % 1025,2 hPa 0,0 mm 0,0 mm nein 11,3 km/h 20,9 km/h 0,0 mm/h ONO 70,200 klux 541,0 W/qm 1,9 ja 9,33 µg/m³ 11:05
11:1015,0 °C 53 % 1025,1 hPa 0,0 mm 0,0 mm nein 9,7 km/h 16,1 km/h 0,0 mm/h OSO 66,821 klux 517,0 W/qm 1,9 ja 9,80 µg/m³ 11:10
11:1515,6 °C 51 % 1025,0 hPa 0,0 mm 0,0 mm nein 14,5 km/h 30,6 km/h 0,0 mm/h O 70,812 klux 550,0 W/qm 2,0 ja 9,30 µg/m³ 11:15
11:2015,6 °C 52 % 1025,1 hPa 0,0 mm 0,0 mm nein 12,9 km/h 32,2 km/h 0,0 mm/h OSO 86,708 klux 676,0 W/qm 2,3 ja 17,37 µg/m³ 11:20
11:2516,1 °C 52 % 1024,8 hPa 0,0 mm 0,0 mm nein 14,5 km/h 30,6 km/h 0,0 mm/h O 98,019 klux 767,0 W/qm 2,6 ja 7,60 µg/m³ 11:25
11:3016,1 °C 49 % 1024,8 hPa 0,0 mm 0,0 mm nein 16,1 km/h 29,0 km/h 0,0 mm/h O 102,382 klux 804,0 W/qm 2,6 ja 7,33 µg/m³ 11:30
11:3516,7 °C 47 % 1024,7 hPa 0,0 mm 0,0 mm nein 11,3 km/h 27,4 km/h 0,0 mm/h OSO 89,466 klux 705,0 W/qm 2,6 ja 7,93 µg/m³ 11:35
11:4016,1 °C 48 % 1024,8 hPa 0,0 mm 0,0 mm nein 19,3 km/h 33,8 km/h 0,0 mm/h O 96,503 klux 763,0 W/qm 2,7 ja 7,30 µg/m³ 11:40
11:4516,7 °C 46 % 1024,6 hPa 0,0 mm 0,0 mm nein 17,7 km/h 32,2 km/h 0,0 mm/h O 105,017 klux 833,0 W/qm 2,8 ja 7,63 µg/m³ 11:45
11:5016,7 °C 47 % 1024,7 hPa 0,0 mm 0,0 mm nein 14,5 km/h 27,4 km/h 0,0 mm/h OSO 73,775 klux 587,0 W/qm 2,4 ja 7,33 µg/m³ 11:50
11:5516,7 °C 48 % 1024,6 hPa 0,0 mm 0,0 mm nein 14,5 km/h 27,4 km/h 0,0 mm/h OSO 59,773 klux 477,0 W/qm 2,2 nein 9,20 µg/m³ 11:55
UhrzeitTemperaturFeuchteLuftdruckNiederschlagEvapotranspirationNiederschlag?WindWindböenRegenrateWindrichtungHelligkeitSolarstrahlungUV-IndexSonne?Feinstaub 10µmUhrzeit
12:0016,7 °C 47 % 1024,5 hPa 0,0 mm 0,4 mm nein 11,3 km/h 22,5 km/h 0,0 mm/h OSO 63,354 klux 507,0 W/qm 2,3 ja 7,33 µg/m³ 12:00
12:0516,7 °C 48 % 1024,4 hPa 0,0 mm 0,0 mm nein 12,9 km/h 27,4 km/h 0,0 mm/h OSO 75,647 klux 607,0 W/qm 2,6 ja 6,73 µg/m³ 12:05
12:1017,2 °C 44 % 1024,4 hPa 0,0 mm 0,0 mm nein 17,7 km/h 33,8 km/h 0,0 mm/h O 84,655 klux 681,0 W/qm 2,8 ja 9,27 µg/m³ 12:10
12:1517,2 °C 44 % 1024,3 hPa 0,0 mm 0,0 mm nein 16,1 km/h 35,4 km/h 0,0 mm/h O 88,919 klux 717,0 W/qm 2,9 ja 6,60 µg/m³ 12:15
Gesamt: 9,4 °C 66 % 1026,0 hPa 0,0 mm 1,4 mm nein 5,3 km/h 10,1 km/h 0,0 mm/h 0 24,235 klux 177,6 W/qm 0,5 ja 9,61 µg/m³

Insgesamt 148 Zeilen mal 15 Spalten = 2220 Werte werden angezeigt.

www.wetter-rosstal.de   •   www.wetter-franken.de   •   www.lightningmaps.org   •   Start   •   Kontakt / Datenschutz   •   PC-Kümmerer